createdAt,value
2022-08-08T00:01:17.693Z,5.25
2022-08-08T00:03:55.814Z,3.70
2022-08-08T00:06:36.543Z,3.97
2022-08-08T00:09:12.160Z,6.05
2022-08-08T00:12:08.000Z,4.60
2022-08-08T00:14:58.986Z,5.80
2022-08-08T00:18:01.861Z,4.88
2022-08-08T00:20:36.157Z,4.68
2022-08-08T00:23:09.108Z,4.97
2022-08-08T00:25:46.188Z,4.43
2022-08-08T00:28:34.512Z,4.93
2022-08-08T00:32:15.167Z,5.63
2022-08-08T00:34:27.087Z,3.72
2022-08-08T00:37:03.761Z,4.25
2022-08-08T00:41:12.009Z,4.03
2022-08-08T00:43:11.841Z,4.55
2022-08-08T00:46:16.222Z,4.47
2022-08-08T00:49:22.001Z,4.35
2022-08-08T00:52:04.860Z,4.03
2022-08-08T00:55:11.305Z,7.70
2022-08-08T00:58:21.751Z,4.43
2022-08-08T01:01:09.725Z,3.85
2022-08-08T01:04:15.339Z,7.07
2022-08-08T01:07:55.801Z,4.65
2022-08-08T01:11:06.546Z,5.40
2022-08-08T01:14:05.476Z,4.47
2022-08-08T01:17:52.140Z,5.37
2022-08-08T01:21:07.470Z,5.32
2022-08-08T01:24:13.738Z,3.73
2022-08-08T01:27:32.830Z,7.20
2022-08-08T01:30:53.635Z,4.80
2022-08-08T01:34:01.110Z,4.17
2022-08-08T01:37:17.581Z,4.93
2022-08-08T01:40:14.693Z,6.47
2022-08-08T01:42:52.138Z,4.87
2022-08-08T01:45:42.211Z,5.73
2022-08-08T01:48:30.292Z,6.70
2022-08-08T01:51:17.174Z,6.97
2022-08-08T01:55:19.690Z,5.83
2022-08-08T01:57:20.867Z,3.80
2022-08-08T02:00:12.918Z,4.57
2022-08-08T02:03:07.165Z,5.70
2022-08-08T02:05:56.645Z,8.63
2022-08-08T02:08:39.942Z,5.37
2022-08-08T02:11:58.608Z,5.33
2022-08-08T02:14:34.712Z,3.93
2022-08-08T02:17:26.845Z,3.37
2022-08-08T02:20:16.114Z,5.83
2022-08-08T02:23:16.425Z,5.97
2022-08-08T02:25:50.667Z,8.37
2022-08-08T02:28:35.319Z,3.77
2022-08-08T02:31:43.648Z,4.50
2022-08-08T02:34:08.240Z,4.90
2022-08-08T02:36:47.445Z,7.60
2022-08-08T02:40:00.181Z,4.53
2022-08-08T02:44:11.568Z,5.67
2022-08-08T02:46:13.376Z,4.30
2022-08-08T02:49:47.431Z,5.90
2022-08-08T02:52:39.400Z,4.90
2022-08-08T02:55:31.835Z,5.93
2022-08-08T02:58:35.444Z,5.70
2022-08-08T03:01:47.550Z,4.87
2022-08-08T03:05:17.244Z,4.27
2022-08-08T03:08:27.957Z,5.63
2022-08-08T03:12:01.340Z,5.93
2022-08-08T03:15:56.572Z,4.80
2022-08-08T03:17:39.623Z,6.80
2022-08-08T03:20:10.252Z,5.97
2022-08-08T03:22:47.085Z,4.93
2022-08-08T03:25:18.849Z,4.80
2022-08-08T03:27:56.859Z,6.23
2022-08-08T03:30:26.336Z,5.60
2022-08-08T03:33:56.115Z,7.20
2022-08-08T03:36:00.367Z,7.73
2022-08-08T03:38:57.829Z,6.97
2022-08-08T03:42:12.930Z,6.97
2022-08-08T03:44:06.756Z,6.00
2022-08-08T03:46:47.088Z,9.90
2022-08-08T03:49:56.764Z,6.43
2022-08-08T03:52:08.169Z,6.13
2022-08-08T03:55:01.824Z,6.27
2022-08-08T03:58:33.247Z,5.53
2022-08-08T04:00:21.726Z,4.73
2022-08-08T04:02:59.605Z,6.27
2022-08-08T04:05:30.369Z,8.10
2022-08-08T04:08:00.565Z,6.73
2022-08-08T04:10:31.987Z,7.27
2022-08-08T04:13:00.892Z,6.63
2022-08-08T04:15:55.088Z,7.30
2022-08-08T04:18:34.979Z,8.90
2022-08-08T04:21:07.733Z,7.87
2022-08-08T04:24:12.289Z,7.07
2022-08-08T04:26:25.793Z,5.73
2022-08-08T04:28:54.500Z,8.80
2022-08-08T04:31:57.230Z,6.07
2022-08-08T04:34:10.387Z,7.33
2022-08-08T04:36:38.250Z,9.80
2022-08-08T04:40:03.601Z,7.53
2022-08-08T04:41:55.889Z,7.63
2022-08-08T04:44:23.824Z,6.87
2022-08-08T04:46:55.149Z,12.77
2022-08-08T04:49:29.039Z,9.90
2022-08-08T04:52:14.307Z,11.87
2022-08-08T04:54:42.688Z,9.93
2022-08-08T04:57:12.196Z,8.13
2022-08-08T04:59:41.815Z,12.50
2022-08-08T05:02:10.802Z,13.73
2022-08-08T05:04:42.217Z,13.07
2022-08-08T05:07:15.117Z,15.13
2022-08-08T05:09:43.489Z,15.23
2022-08-08T05:12:21.155Z,15.17
2022-08-08T05:14:49.285Z,10.47
2022-08-08T05:17:20.251Z,13.70
2022-08-08T05:20:12.463Z,9.73
2022-08-08T05:22:37.677Z,15.20
2022-08-08T05:25:06.102Z,15.73
2022-08-08T05:27:41.360Z,13.60
2022-08-08T05:30:13.008Z,11.43
2022-08-08T05:32:41.261Z,11.17
2022-08-08T05:35:13.583Z,11.10
2022-08-08T05:37:52.790Z,14.30
2022-08-08T05:40:28.141Z,13.57
2022-08-08T05:43:02.755Z,9.27
2022-08-08T05:45:43.133Z,10.47
2022-08-08T05:48:28.604Z,11.20
2022-08-08T05:51:14.834Z,11.37
2022-08-08T05:54:24.582Z,10.53
2022-08-08T05:56:38.649Z,12.00
2022-08-08T05:59:58.764Z,12.90
2022-08-08T06:02:28.179Z,11.37
2022-08-08T06:05:06.937Z,12.87
2022-08-08T06:07:53.292Z,11.80
2022-08-08T06:10:33.567Z,10.73
2022-08-08T06:13:02.758Z,19.77
2022-08-08T06:15:51.284Z,12.40
2022-08-08T06:18:24.007Z,31.30
2022-08-08T06:20:57.330Z,17.27
2022-08-08T06:23:48.816Z,13.67
2022-08-08T06:26:44.802Z,14.80
2022-08-08T06:29:26.866Z,12.77
2022-08-08T06:32:09.785Z,12.23
2022-08-08T06:34:40.788Z,13.27
2022-08-08T06:37:25.002Z,13.63
2022-08-08T06:39:57.997Z,13.57
2022-08-08T06:42:32.143Z,12.03
2022-08-08T06:45:01.307Z,10.20
2022-08-08T06:47:58.088Z,12.77
2022-08-08T06:50:32.092Z,20.60
2022-08-08T06:53:13.950Z,10.80
2022-08-08T06:55:46.914Z,9.57
2022-08-08T06:58:15.273Z,10.77
2022-08-08T07:00:50.318Z,20.77
2022-08-08T07:03:52.475Z,15.93
2022-08-08T07:06:19.698Z,14.70
2022-08-08T07:08:49.480Z,15.38
2022-08-08T07:11:22.371Z,11.77
2022-08-08T07:14:00.737Z,12.45
2022-08-08T07:16:51.274Z,11.63
2022-08-08T07:19:34.374Z,10.02
2022-08-08T07:22:11.840Z,7.97
2022-08-08T07:24:53.021Z,11.48
2022-08-08T07:27:35.121Z,11.02
2022-08-08T07:30:21.184Z,10.13
2022-08-08T07:32:54.680Z,10.10
2022-08-08T07:35:30.739Z,10.40
2022-08-08T07:38:04.541Z,11.07
2022-08-08T07:40:40.109Z,11.30
2022-08-08T07:43:09.289Z,14.30
2022-08-08T07:46:05.757Z,9.43
2022-08-08T07:48:29.610Z,9.63
2022-08-08T07:51:01.012Z,6.75
2022-08-08T07:54:02.367Z,7.43
2022-08-08T07:56:35.426Z,8.30
2022-08-08T07:59:08.741Z,8.73
2022-08-08T08:02:35.147Z,6.40
2022-08-08T08:04:39.947Z,7.85
2022-08-08T08:07:11.838Z,8.30
2022-08-08T08:09:42.362Z,7.55
2022-08-08T08:12:31.954Z,8.65
2022-08-08T08:15:05.116Z,6.28
2022-08-08T08:17:47.938Z,7.10
2022-08-08T08:20:19.295Z,8.98
2022-08-08T08:22:50.498Z,5.35
2022-08-08T08:25:19.409Z,8.90
2022-08-08T08:28:09.462Z,7.82
2022-08-08T08:30:41.292Z,6.65
2022-08-08T08:33:14.082Z,6.55
2022-08-08T08:36:17.921Z,7.68
2022-08-08T08:38:31.720Z,11.43
2022-08-08T08:41:00.153Z,6.32
2022-08-08T08:43:29.292Z,7.05
2022-08-08T08:45:58.421Z,6.78
2022-08-08T08:48:32.864Z,6.25
2022-08-08T08:51:03.442Z,4.53
2022-08-08T08:53:59.073Z,5.97
2022-08-08T08:56:28.473Z,5.25
2022-08-08T08:58:58.568Z,10.82
2022-08-08T09:01:34.350Z,4.72
2022-08-08T09:04:30.338Z,5.15
2022-08-08T09:07:00.289Z,10.10
2022-08-08T09:09:38.979Z,5.68
2022-08-08T09:12:20.075Z,5.75
2022-08-08T09:14:50.141Z,7.05
2022-08-08T09:17:31.518Z,5.70
2022-08-08T09:21:57.056Z,6.78
2022-08-08T09:22:59.137Z,4.63
2022-08-08T09:25:36.104Z,6.70
2022-08-08T09:28:30.761Z,4.65
2022-08-08T09:31:12.662Z,5.38
2022-08-08T09:34:06.218Z,4.05
2022-08-08T09:36:35.966Z,4.72
2022-08-08T09:39:15.443Z,3.83
2022-08-08T09:42:19.983Z,4.88
2022-08-08T09:45:07.949Z,5.65
2022-08-08T09:48:09.458Z,5.93
2022-08-08T09:50:28.159Z,4.80
2022-08-08T09:53:05.565Z,3.40
2022-08-08T09:56:03.490Z,4.85
2022-08-08T09:58:40.714Z,5.75
2022-08-08T10:01:15.350Z,5.88
2022-08-08T10:04:02.197Z,5.05
2022-08-08T10:06:35.702Z,6.18
2022-08-08T10:09:05.352Z,4.55
2022-08-08T10:12:26.755Z,4.18
2022-08-08T10:14:38.242Z,5.70
2022-08-08T10:17:56.854Z,5.50
2022-08-08T10:20:00.212Z,4.85
2022-08-08T10:22:32.035Z,3.85
2022-08-08T10:25:04.837Z,5.40
2022-08-08T10:27:42.066Z,3.70
2022-08-08T10:30:16.532Z,5.60
2022-08-08T10:33:02.401Z,4.40
2022-08-08T10:36:20.721Z,4.72
2022-08-08T10:38:21.336Z,4.05
2022-08-08T10:40:53.253Z,6.88
2022-08-08T10:43:23.013Z,3.90
2022-08-08T10:45:56.194Z,6.22
2022-08-08T10:48:36.141Z,4.78
2022-08-08T10:51:13.181Z,5.28
2022-08-08T10:53:58.843Z,3.80
2022-08-08T10:56:34.852Z,6.03
2022-08-08T10:59:08.114Z,6.47
2022-08-08T11:01:39.634Z,6.00
2022-08-08T11:04:12.044Z,4.72
2022-08-08T11:06:41.356Z,4.60
2022-08-08T11:09:21.237Z,9.20
2022-08-08T11:12:04.770Z,5.53
2022-08-08T11:14:50.180Z,4.00
2022-08-08T11:18:00.663Z,5.75
2022-08-08T11:20:13.402Z,4.90
2022-08-08T11:22:42.544Z,4.78
2022-08-08T11:25:14.560Z,5.25
2022-08-08T11:27:48.909Z,4.18
2022-08-08T11:30:23.978Z,6.43
2022-08-08T11:33:04.955Z,6.80
2022-08-08T11:35:42.498Z,4.53
2022-08-08T11:38:35.258Z,5.38
2022-08-08T11:41:03.845Z,4.97
2022-08-08T11:43:39.526Z,5.35
2022-08-08T11:46:14.018Z,6.55
2022-08-08T11:48:49.914Z,3.50
2022-08-08T11:51:38.035Z,11.23
2022-08-08T11:54:27.272Z,5.82
2022-08-08T11:56:58.231Z,4.18
2022-08-08T12:00:00.789Z,4.85
2022-08-08T12:02:32.678Z,4.38
2022-08-08T12:05:07.846Z,5.95
2022-08-08T12:07:51.890Z,4.72
2022-08-08T12:10:23.292Z,5.13
2022-08-08T12:13:00.911Z,7.25
2022-08-08T12:15:40.020Z,5.30
2022-08-08T12:18:18.030Z,4.00
2022-08-08T12:20:53.176Z,3.25
2022-08-08T12:23:43.752Z,5.07
2022-08-08T12:26:28.314Z,3.90
2022-08-08T12:29:19.888Z,5.18
2022-08-08T12:32:00.754Z,4.82
2022-08-08T12:34:36.749Z,3.35
2022-08-08T12:37:08.355Z,5.53
2022-08-08T12:40:00.096Z,3.92
2022-08-08T12:42:26.470Z,5.00
2022-08-08T12:45:53.672Z,5.53
2022-08-08T12:48:09.835Z,4.75
2022-08-08T12:50:48.414Z,4.70
2022-08-08T12:53:29.988Z,2.85
2022-08-08T12:56:19.590Z,12.02
2022-08-08T12:58:54.155Z,5.20
2022-08-08T13:01:34.993Z,8.80
2022-08-08T13:04:19.217Z,3.97
2022-08-08T13:07:00.597Z,4.10
2022-08-08T13:09:43.012Z,4.82
2022-08-08T13:12:32.968Z,4.65
2022-08-08T13:15:03.613Z,3.95
2022-08-08T13:18:07.754Z,2.75
2022-08-08T13:20:22.004Z,4.03
2022-08-08T13:22:51.606Z,5.82
2022-08-08T13:25:28.972Z,3.30
2022-08-08T13:28:00.532Z,4.70
2022-08-08T13:30:29.343Z,5.60
2022-08-08T13:32:58.624Z,3.75
2022-08-08T13:35:38.382Z,4.63
2022-08-08T13:38:13.072Z,8.50
2022-08-08T13:40:44.928Z,23.63
2022-08-08T13:43:13.880Z,3.92
2022-08-08T13:45:47.692Z,4.45
2022-08-08T13:48:17.481Z,4.30
2022-08-08T13:50:57.543Z,2.85
2022-08-08T13:53:28.141Z,2.97
2022-08-08T13:56:10.909Z,2.92
2022-08-08T13:58:56.510Z,6.53
2022-08-08T14:01:32.787Z,5.03
2022-08-08T14:04:23.149Z,2.38
2022-08-08T14:06:59.502Z,2.55
2022-08-08T14:10:04.506Z,3.30
2022-08-08T14:12:28.049Z,2.10
2022-08-08T14:14:56.486Z,3.17
2022-08-08T14:17:58.184Z,5.50
2022-08-08T14:20:15.647Z,2.30
2022-08-08T14:23:10.506Z,4.30
2022-08-08T14:25:54.214Z,2.38
2022-08-08T14:28:29.195Z,7.15
2022-08-08T14:31:09.237Z,1.90
2022-08-08T14:33:39.085Z,6.25
2022-08-08T14:36:13.236Z,4.70
2022-08-08T14:38:52.580Z,1.98
2022-08-08T14:41:45.246Z,3.22
2022-08-08T14:44:21.116Z,3.20
2022-08-08T14:47:01.044Z,3.85
2022-08-08T14:49:37.940Z,2.70
2022-08-08T14:52:23.737Z,3.25
2022-08-08T14:54:51.857Z,6.90
2022-08-08T14:57:20.780Z,2.65
2022-08-08T15:00:11.887Z,2.15
2022-08-08T15:03:14.250Z,2.63
2022-08-08T15:05:42.620Z,5.57
2022-08-08T15:08:22.142Z,3.88
2022-08-08T15:11:01.389Z,6.45
2022-08-08T15:13:39.641Z,4.60
2022-08-08T15:16:11.825Z,6.70
2022-08-08T15:18:44.033Z,4.82
2022-08-08T15:21:17.982Z,2.38
2022-08-08T15:23:51.140Z,3.08
2022-08-08T15:26:19.760Z,2.83
2022-08-08T15:28:51.003Z,2.00
2022-08-08T15:31:55.934Z,4.25
2022-08-08T15:34:18.343Z,2.00
2022-08-08T15:36:57.266Z,3.72
2022-08-08T15:39:25.671Z,3.72
2022-08-08T15:41:53.908Z,2.70
2022-08-08T15:44:22.238Z,2.15
2022-08-08T15:46:51.446Z,1.90
2022-08-08T15:49:21.116Z,3.60
2022-08-08T15:51:54.286Z,4.90
2022-08-08T15:54:38.077Z,3.28
2022-08-08T15:57:08.872Z,3.17
2022-08-08T16:00:05.782Z,3.03
2022-08-08T16:02:30.475Z,2.88
2022-08-08T16:04:59.765Z,2.17
2022-08-08T16:07:51.777Z,2.95
2022-08-08T16:13:11.270Z,3.40
2022-08-08T16:13:32.494Z,3.35
2022-08-08T16:15:57.322Z,3.25
2022-08-08T16:18:27.160Z,2.10
2022-08-08T16:21:00.019Z,3.25
2022-08-08T16:23:32.179Z,1.85
2022-08-08T16:26:04.409Z,3.50
2022-08-08T16:28:35.473Z,3.10
2022-08-08T16:31:07.552Z,6.25
2022-08-08T16:33:40.211Z,2.08
2022-08-08T16:36:09.823Z,3.42
2022-08-08T16:38:46.477Z,2.00
2022-08-08T16:41:22.768Z,2.88
2022-08-08T16:43:52.243Z,3.08
2022-08-08T16:46:36.629Z,2.40
2022-08-08T16:49:10.624Z,3.60
2022-08-08T16:55:01.831Z,3.00
2022-08-08T16:55:05.349Z,3.97
2022-08-08T16:57:43.547Z,3.60
2022-08-08T17:00:08.997Z,3.88
2022-08-08T17:02:39.756Z,2.60
2022-08-08T17:05:13.662Z,3.20
2022-08-08T17:07:42.226Z,2.60
2022-08-08T17:10:11.529Z,8.68
2022-08-08T17:12:41.509Z,6.28
2022-08-08T17:15:17.402Z,2.95
2022-08-08T17:18:02.443Z,4.47
2022-08-08T17:20:33.675Z,3.65
2022-08-08T17:23:18.115Z,3.08
2022-08-08T17:25:56.511Z,3.20
2022-08-08T17:28:34.468Z,2.45
2022-08-08T17:31:39.405Z,2.50
2022-08-08T17:34:35.920Z,1.92
2022-08-08T17:36:47.944Z,2.17
2022-08-08T17:40:05.173Z,2.65
2022-08-08T17:42:18.137Z,3.72
2022-08-08T17:44:46.374Z,2.97
2022-08-08T17:47:23.783Z,4.03
2022-08-08T17:50:05.695Z,4.30
2022-08-08T17:52:37.634Z,2.67
2022-08-08T17:56:04.663Z,1.92
2022-08-08T17:57:59.532Z,3.58
2022-08-08T18:00:30.697Z,2.80
2022-08-08T18:03:07.610Z,3.40
2022-08-08T18:05:48.223Z,2.58
2022-08-08T18:08:24.690Z,2.47
2022-08-08T18:11:08.486Z,5.22
2022-08-08T18:13:41.698Z,1.88
2022-08-08T18:16:11.340Z,2.05
2022-08-08T18:18:42.827Z,4.13
2022-08-08T18:21:35.371Z,4.30
2022-08-08T18:24:03.929Z,4.75
2022-08-08T18:26:33.485Z,1.70
2022-08-08T18:29:02.681Z,2.95
2022-08-08T18:31:34.071Z,1.67
2022-08-08T18:34:11.631Z,2.55
2022-08-08T18:36:50.407Z,3.35
2022-08-08T18:39:28.775Z,3.45
2022-08-08T18:42:02.861Z,2.13
2022-08-08T18:44:33.114Z,2.40
2022-08-08T18:47:05.036Z,2.67
2022-08-08T18:49:54.872Z,4.82
2022-08-08T18:52:23.382Z,3.47
2022-08-08T18:55:00.167Z,2.55
2022-08-08T18:57:41.319Z,2.70
2022-08-08T19:00:16.732Z,2.47
2022-08-08T19:02:55.576Z,4.40
2022-08-08T19:05:30.554Z,3.47
2022-08-08T19:08:03.054Z,3.47
2022-08-08T19:10:33.472Z,6.60
2022-08-08T19:13:03.045Z,2.72
2022-08-08T19:15:33.794Z,3.72
2022-08-08T19:18:32.979Z,5.28
2022-08-08T19:20:50.812Z,3.78
2022-08-08T19:23:21.716Z,5.00
2022-08-08T19:26:20.036Z,3.45
2022-08-08T19:28:41.712Z,2.53
2022-08-08T19:31:13.031Z,3.72
2022-08-08T19:34:05.133Z,4.25
2022-08-08T19:36:33.528Z,6.20
2022-08-08T19:39:01.420Z,2.25
2022-08-08T19:41:33.594Z,2.25
2022-08-08T19:44:02.887Z,2.70
2022-08-08T19:46:33.585Z,1.98
2022-08-08T19:49:02.978Z,1.50
2022-08-08T19:51:34.092Z,5.40
2022-08-08T19:54:03.033Z,2.58
2022-08-08T19:56:39.882Z,2.78
2022-08-08T19:59:12.898Z,3.22
2022-08-08T20:02:01.911Z,1.70
2022-08-08T20:04:29.712Z,9.00
2022-08-08T20:06:57.774Z,2.30
2022-08-08T20:09:30.064Z,2.78
2022-08-08T20:12:02.385Z,2.65
2022-08-08T20:14:34.080Z,3.42
2022-08-08T20:17:03.435Z,2.45
2022-08-08T20:19:34.257Z,4.28
2022-08-08T20:22:04.829Z,3.53
2022-08-08T20:24:40.944Z,2.85
2022-08-08T20:27:10.173Z,2.25
2022-08-08T20:30:00.409Z,4.80
2022-08-08T20:32:30.002Z,4.00
2022-08-08T20:35:02.205Z,6.10
2022-08-08T20:37:46.960Z,1.95
2022-08-08T20:40:33.502Z,4.65
2022-08-08T20:43:16.483Z,6.60
2022-08-08T20:45:57.883Z,2.45
2022-08-08T20:48:31.795Z,2.47
2022-08-08T20:50:59.679Z,3.03
2022-08-08T20:54:00.757Z,3.30
2022-08-08T20:56:16.619Z,2.00
2022-08-08T20:58:47.879Z,3.30
2022-08-08T21:01:20.308Z,4.45
2022-08-08T21:03:55.064Z,4.25
2022-08-08T21:06:53.383Z,4.65
2022-08-08T21:09:16.304Z,3.50
2022-08-08T21:11:53.473Z,2.40
2022-08-08T21:14:34.556Z,2.78
2022-08-08T21:17:03.159Z,3.70
2022-08-08T21:19:45.284Z,3.10
2022-08-08T21:22:15.276Z,2.55
2022-08-08T21:24:53.020Z,2.35
2022-08-08T21:27:38.865Z,3.05
2022-08-08T21:30:19.343Z,2.88
2022-08-08T21:32:52.059Z,7.97
2022-08-08T21:36:17.367Z,4.88
2022-08-08T21:38:17.018Z,3.13
2022-08-08T21:40:54.842Z,3.42
2022-08-08T21:43:23.159Z,2.33
2022-08-08T21:48:06.010Z,2.85
2022-08-08T21:48:44.523Z,3.92
2022-08-08T21:51:13.336Z,3.72
2022-08-08T21:54:27.269Z,3.47
2022-08-08T21:56:38.025Z,2.95
2022-08-08T21:59:10.688Z,3.25
2022-08-08T22:01:44.649Z,2.60
2022-08-08T22:04:20.354Z,3.70
2022-08-08T22:06:48.444Z,6.60
2022-08-08T22:09:17.588Z,2.92
2022-08-08T22:11:59.588Z,2.20
2022-08-08T22:14:32.789Z,3.20
2022-08-08T22:17:01.997Z,3.03
2022-08-08T22:19:30.713Z,2.33
2022-08-08T22:22:18.376Z,4.07
2022-08-08T22:24:46.485Z,4.10
2022-08-08T22:27:15.824Z,2.63
2022-08-08T22:30:04.162Z,3.00
2022-08-08T22:32:33.754Z,5.13
2022-08-08T22:35:03.744Z,3.50
2022-08-08T22:37:53.654Z,3.40
2022-08-08T22:40:20.878Z,4.50
2022-08-08T22:42:49.534Z,3.05
2022-08-08T22:45:17.774Z,2.58
2022-08-08T22:47:51.919Z,3.47
2022-08-08T22:50:25.798Z,2.47
2022-08-08T22:54:19.570Z,3.78
2022-08-08T22:55:58.453Z,4.40
2022-08-08T22:58:30.876Z,5.47
2022-08-08T23:01:00.551Z,4.53
2022-08-08T23:03:30.493Z,6.43
2022-08-08T23:06:18.345Z,5.07
2022-08-08T23:08:55.575Z,4.38
2022-08-08T23:11:30.905Z,5.50
2022-08-08T23:14:17.242Z,3.67
2022-08-08T23:16:48.239Z,5.03
2022-08-08T23:19:30.787Z,3.90
2022-08-08T23:22:01.144Z,4.13
2022-08-08T23:24:36.638Z,3.90
2022-08-08T23:27:10.220Z,3.20
2022-08-08T23:29:38.411Z,4.45
2022-08-08T23:32:10.388Z,3.83
2022-08-08T23:34:49.601Z,4.53
2022-08-08T23:38:01.548Z,4.93
2022-08-08T23:40:15.753Z,3.10
2022-08-08T23:42:45.111Z,2.08
2022-08-08T23:45:13.076Z,5.50
2022-08-08T23:49:03.135Z,4.18
2022-08-08T23:50:31.285Z,5.22
2022-08-08T23:53:03.578Z,7.55
2022-08-08T23:55:33.720Z,4.55
2022-08-08T23:58:09.883Z,4.63
